Time;durP1;ratioP1;P1;durP2;ratioP2;P2;SDS_P1;SDS_P2;PMS_P1;PMS_P2;Temp;Humidity;BMP_temperature;BMP_pressure;BME280_temperature;BME280_humidity;BME280_pressure;Samples;Min_cycle;Max_cycle;Signal;HPM_P1;HPM_P2
2023/09/03 00:00:30;;;;;;;5.18;4.07;;;;;;;13.20;100.00;102012.16;5056826;28;20065;-52
2023/09/03 00:02:56;;;;;;;5.97;4.05;;;;;;;13.20;100.00;102028.94;5057153;28;20463;-52
2023/09/03 00:05:21;;;;;;;5.40;4.10;;;;;;;13.19;100.00;102021.97;5055238;28;20040;-53
2023/09/03 00:07:46;;;;;;;5.50;4.00;;;;;;;13.14;100.00;102016.34;5054434;28;20127;-53
2023/09/03 00:10:11;;;;;;;5.10;4.40;;;;;;;13.08;100.00;102019.66;5064829;28;20036;-53
2023/09/03 00:12:37;;;;;;;6.07;5.05;;;;;;;13.07;100.00;102013.50;5052331;28;20032;-51
2023/09/03 00:15:03;;;;;;;4.95;3.90;;;;;;;13.03;100.00;102016.66;5057057;28;20033;-55
2023/09/03 00:17:28;;;;;;;5.55;4.00;;;;;;;12.96;100.00;102021.84;5051826;28;20885;-55
2023/09/03 00:19:54;;;;;;;4.03;3.50;;;;;;;12.92;100.00;102019.69;5051628;28;20029;-53
2023/09/03 00:22:19;;;;;;;4.57;4.18;;;;;;;12.89;100.00;102015.53;5070333;28;20599;-56
2023/09/03 00:24:44;;;;;;;4.43;4.10;;;;;;;12.88;100.00;102011.19;5052754;28;20474;-53
2023/09/03 00:27:10;;;;;;;7.63;4.60;;;;;;;12.80;100.00;102016.53;5058319;28;20059;-53
2023/09/03 00:29:36;;;;;;;8.43;3.58;;;;;;;12.71;100.00;102015.72;5053765;28;20048;-53
2023/09/03 00:32:02;;;;;;;5.03;4.28;;;;;;;12.60;100.00;102022.22;5060667;28;20492;-52
2023/09/03 00:34:27;;;;;;;9.43;4.30;;;;;;;12.60;100.00;102022.22;5051998;28;20425;-52
2023/09/03 00:36:53;;;;;;;4.68;3.88;;;;;;;12.62;100.00;102027.34;5051768;28;20029;-55
2023/09/03 00:39:18;;;;;;;8.88;4.90;;;;;;;12.61;100.00;102023.03;5056323;28;20143;-54
2023/09/03 00:41:45;;;;;;;4.93;3.67;;;;;;;12.57;100.00;102011.06;5054358;28;20041;-55
2023/09/03 00:44:10;;;;;;;8.43;4.78;;;;;;;12.58;100.00;102015.41;5061616;28;20041;-54
2023/09/03 00:46:36;;;;;;;4.00;3.58;;;;;;;12.59;100.00;102025.88;5047188;28;20554;-54
2023/09/03 00:49:01;;;;;;;5.75;4.63;;;;;;;12.59;100.00;102020.53;5054193;28;20068;-53
2023/09/03 00:51:27;;;;;;;6.30;5.40;;;;;;;12.56;100.00;102023.53;5060804;28;20035;-52
2023/09/03 00:53:55;;;;;;;5.68;4.82;;;;;;;12.51;100.00;102027.69;5065518;28;20728;-52
2023/09/03 00:56:21;;;;;;;7.68;3.65;;;;;;;12.60;100.00;102026.72;5061672;28;20423;-54
2023/09/03 00:58:47;;;;;;;5.18;4.75;;;;;;;12.60;100.00;102024.88;5058875;28;21598;-52
2023/09/03 01:01:13;;;;;;;5.78;4.22;;;;;;;12.65;100.00;102027.06;5057442;28;20037;-52
2023/09/03 01:03:39;;;;;;;4.88;4.45;;;;;;;12.63;100.00;102019.22;5059715;28;20073;-51
2023/09/03 01:06:05;;;;;;;8.98;4.68;;;;;;;12.64;100.00;102014.72;5059551;28;20116;-52
2023/09/03 01:08:31;;;;;;;4.20;3.80;;;;;;;12.59;100.00;102012.56;5059473;28;20123;-51
2023/09/03 01:11:25;;;;;;;4.88;4.10;;;;;;;12.56;100.00;102004.91;5052483;28;20035;-54
2023/09/03 01:14:09;;;;;;;6.47;4.38;;;;;;;12.51;100.00;102009.06;5034070;28;20124;-54
2023/09/03 01:16:42;;;;;;;7.07;4.40;;;;;;;12.47;100.00;102016.56;5054936;28;20037;-51
2023/09/03 01:19:36;;;;;;;6.13;4.60;;;;;;;12.54;100.00;102014.88;5052393;28;20111;-51
2023/09/03 01:22:16;;;;;;;8.38;5.03;;;;;;;12.55;100.00;102018.41;5054834;28;20400;-55
2023/09/03 01:24:52;;;;;;;5.88;4.22;;;;;;;12.50;100.00;102012.75;5057286;28;20477;-51
2023/09/03 01:27:23;;;;;;;5.70;4.70;;;;;;;12.34;100.00;102011.75;5057990;28;20037;-53
2023/09/03 01:29:49;;;;;;;;;;;;;;;12.33;100.00;102020.69;5053887;28;21525;-51
2023/09/03 01:32:16;;;;;;;5.50;4.75;;;;;;;12.24;100.00;102013.72;5055425;28;19954;-50
2023/09/03 01:34:42;;;;;;;4.95;4.47;;;;;;;12.20;100.00;102012.38;5059050;28;20025;-53
2023/09/03 01:37:09;;;;;;;4.78;3.90;;;;;;;12.17;100.00;102023.34;5056542;28;20036;-55
2023/09/03 01:39:34;;;;;;;4.72;3.90;;;;;;;12.18;100.00;102022.34;5052291;28;20028;-52
2023/09/03 01:42:00;;;;;;;7.05;5.03;;;;;;;12.13;100.00;102032.63;5057904;28;20056;-55
2023/09/03 01:44:25;;;;;;;6.32;3.83;;;;;;;12.05;100.00;102037.94;5060418;28;20801;-54
2023/09/03 01:46:59;;;;;;;5.00;3.90;;;;;;;12.00;100.00;102035.75;5054302;28;20143;-55
2023/09/03 01:49:31;;;;;;;4.50;3.85;;;;;;;11.97;100.00;102034.25;5059010;28;20065;-51
2023/09/03 01:52:37;;;;;;;4.50;4.00;;;;;;;11.90;100.00;102037.72;5051281;28;20032;-52
2023/09/03 01:55:08;;;;;;;4.55;3.97;;;;;;;11.85;100.00;102045.31;5051515;28;20029;-52
2023/09/03 01:57:39;;;;;;;5.47;4.90;;;;;;;11.82;100.00;102043.81;5051196;28;20048;-50
2023/09/03 02:00:11;;;;;;;4.23;3.43;;;;;;;11.81;100.00;102039.50;5056622;28;20024;-53
2023/09/03 02:02:37;;;;;;;5.15;4.65;;;;;;;11.78;100.00;102039.84;5055405;28;20800;-53
2023/09/03 02:05:03;;;;;;;5.82;4.75;;;;;;;11.87;100.00;102046.84;5051032;28;20036;-54
2023/09/03 02:07:28;;;;;;;4.65;4.00;;;;;;;11.90;100.00;102041.25;5058114;28;20499;-49
2023/09/03 02:09:54;;;;;;;5.72;4.68;;;;;;;11.88;100.00;102045.88;5048883;28;20068;-53
2023/09/03 02:12:23;;;;;;;7.32;4.35;;;;;;;11.92;100.00;102052.53;5057937;28;20039;-54
2023/09/03 02:14:49;;;;;;;5.97;4.75;;;;;;;11.87;100.00;102054.81;5053539;28;20048;-51
2023/09/03 02:17:19;;;;;;;5.30;4.78;;;;;;;11.84;100.00;102055.13;5062451;28;20040;-54
2023/09/03 02:19:45;;;;;;;5.50;4.18;;;;;;;11.78;100.00;102050.47;5054900;28;20479;-53
2023/09/03 02:22:10;;;;;;;6.97;5.53;;;;;;;11.76;100.00;102063.06;5055874;28;20395;-53
2023/09/03 02:24:36;;;;;;;5.85;4.05;;;;;;;11.68;100.00;102061.22;5054601;28;20503;-48
2023/09/03 02:27:01;;;;;;;7.53;5.00;;;;;;;11.59;100.00;102075.47;5062670;28;20041;-55
2023/09/03 02:29:26;;;;;;;7.63;4.97;;;;;;;11.56;100.00;102079.28;5058920;28;20134;-49
2023/09/03 02:31:51;;;;;;;8.10;5.65;;;;;;;11.55;100.00;102079.44;5056726;28;20548;-56
2023/09/03 02:34:18;;;;;;;7.75;5.28;;;;;;;11.53;100.00;102086.72;5060389;28;20583;-52
2023/09/03 02:36:43;;;;;;;8.48;5.20;;;;;;;11.53;100.00;102089.38;5061704;28;20052;-51
2023/09/03 02:39:09;;;;;;;13.15;7.10;;;;;;;11.51;100.00;102089.53;5065896;28;20032;-55
2023/09/03 02:41:34;;;;;;;16.70;7.07;;;;;;;11.53;100.00;102087.53;5056609;28;20035;-48
2023/09/03 02:44:01;;;;;;;8.70;6.35;;;;;;;11.56;100.00;102092.56;5046663;28;20059;-53
2023/09/03 02:46:27;;;;;;;8.43;6.85;;;;;;;11.57;100.00;102082.75;5056698;28;20062;-53
2023/09/03 02:48:53;;;;;;;8.07;6.22;;;;;;;11.53;100.00;102092.03;5065174;28;20032;-53
2023/09/03 02:51:19;;;;;;;6.70;5.38;;;;;;;11.47;100.00;102090.00;5059477;28;20032;-50
2023/09/03 02:53:46;;;;;;;9.18;6.68;;;;;;;11.50;100.00;102082.53;5064242;28;20028;-50
2023/09/03 02:56:12;;;;;;;7.45;6.05;;;;;;;11.51;100.00;102081.56;5056577;28;20082;-53
2023/09/03 02:58:38;;;;;;;10.88;6.85;;;;;;;11.53;100.00;102084.88;5057052;28;20067;-50
2023/09/03 03:01:09;;;;;;;9.90;6.75;;;;;;;11.57;100.00;102082.75;5058088;28;20056;-53
2023/09/03 03:03:34;;;;;;;10.02;7.63;;;;;;;11.60;100.00;102081.59;5048472;28;20083;-55
2023/09/03 03:06:00;;;;;;;16.17;7.47;;;;;;;11.57;100.00;102078.28;5055221;28;20056;-48
2023/09/03 03:08:25;;;;;;;8.05;6.60;;;;;;;11.60;100.00;102074.47;5058557;28;20039;-53
2023/09/03 03:10:51;;;;;;;10.90;6.63;;;;;;;11.64;100.00;102069.66;5054935;28;20032;-52
2023/09/03 03:13:17;;;;;;;15.75;7.53;;;;;;;11.66;100.00;102073.00;5056135;28;20033;-55
2023/09/03 03:15:42;;;;;;;9.85;7.03;;;;;;;11.60;100.00;102071.81;5055728;28;20035;-51
2023/09/03 03:18:07;;;;;;;10.43;6.72;;;;;;;11.68;100.00;102073.66;5056619;28;20442;-50
2023/09/03 03:20:33;;;;;;;11.60;7.43;;;;;;;11.68;100.00;102060.38;5053024;28;20049;-50
2023/09/03 03:22:58;;;;;;;8.93;5.63;;;;;;;11.60;100.00;102050.56;5052502;28;20500;-51
2023/09/03 03:25:23;;;;;;;12.18;6.80;;;;;;;11.61;100.00;102043.41;5054248;28;20481;-51
2023/09/03 03:27:49;;;;;;;7.38;6.20;;;;;;;11.61;100.00;102062.00;5048510;28;20033;-51
2023/09/03 03:30:14;;;;;;;9.20;6.85;;;;;;;11.58;100.00;102061.34;5054814;28;20117;-51
2023/09/03 03:32:39;;;;;;;9.20;6.10;;;;;;;11.50;100.00;102061.28;5058399;28;20040;-51
2023/09/03 03:35:06;;;;;;;13.10;6.10;;;;;;;11.48;100.00;102063.28;5052891;28;20131;-50
2023/09/03 03:37:31;;;;;;;10.60;6.68;;;;;;;11.48;100.00;102055.31;5048676;28;20031;-51
2023/09/03 03:39:56;;;;;;;7.05;5.85;;;;;;;11.48;100.00;102059.78;5048664;28;20377;-51
2023/09/03 03:42:22;;;;;;;7.03;5.65;;;;;;;11.48;100.00;102062.44;5044803;28;21380;-52
2023/09/03 03:44:47;;;;;;;8.50;7.55;;;;;;;11.46;100.00;102059.09;5052890;28;20037;-50
2023/09/03 03:47:13;;;;;;;7.22;6.53;;;;;;;11.45;100.00;102062.75;5049825;28;20072;-50
2023/09/03 03:49:38;;;;;;;6.40;5.15;;;;;;;11.47;100.00;102058.13;5060521;28;20029;-53
2023/09/03 03:52:03;;;;;;;8.68;6.75;;;;;;;11.48;100.00;102054.47;5065289;28;20034;-51
2023/09/03 03:54:30;;;;;;;16.98;7.50;;;;;;;11.51;100.00;102055.00;5060820;28;20036;-52
2023/09/03 03:56:56;;;;;;;12.48;7.43;;;;;;;11.60;100.00;102060.34;5065590;28;20107;-52
2023/09/03 03:59:21;;;;;;;8.75;6.57;;;;;;;11.61;100.00;102052.22;5050285;28;20074;-52
2023/09/03 04:01:46;;;;;;;14.52;7.38;;;;;;;11.63;100.00;102052.88;5050688;28;20370;-52
2023/09/03 04:04:12;;;;;;;11.88;6.82;;;;;;;11.68;100.00;102049.75;5057008;28;20294;-51
2023/09/03 04:06:37;;;;;;;17.35;9.55;;;;;;;11.71;100.00;102049.44;5060411;28;20450;-49
2023/09/03 04:09:02;;;;;;;17.30;8.88;;;;;;;11.68;100.00;102050.59;5054412;28;20034;-53
2023/09/03 04:11:28;;;;;;;12.70;8.27;;;;;;;11.61;100.00;102052.22;5051085;28;20031;-54
2023/09/03 04:13:53;;;;;;;19.42;7.57;;;;;;;11.54;100.00;102061.84;5060592;28;20036;-54
2023/09/03 04:16:22;;;;;;;14.63;8.13;;;;;;;11.47;100.00;102064.28;5053929;28;20035;-54
2023/09/03 04:18:50;;;;;;;11.23;6.50;;;;;;;11.49;100.00;102074.75;5061650;28;20068;-51
2023/09/03 04:21:16;;;;;;;16.80;8.00;;;;;;;11.53;100.00;102066.28;5057871;28;20485;-53
2023/09/03 04:23:42;;;;;;;12.85;7.97;;;;;;;11.61;100.00;102067.31;5054537;28;20132;-54
2023/09/03 04:26:09;;;;;;;36.53;8.43;;;;;;;11.57;100.00;102065.00;5056965;28;20106;-53
2023/09/03 04:28:34;;;;;;;14.73;7.63;;;;;;;11.56;100.00;102067.78;5047184;28;20424;-54
2023/09/03 04:31:01;;;;;;;24.73;7.72;;;;;;;11.56;100.00;102067.78;5058989;28;20044;-49
2023/09/03 04:33:27;;;;;;;16.33;7.53;;;;;;;11.55;100.00;102064.31;5058936;28;20464;-52
2023/09/03 04:36:00;;;;;;;33.40;8.95;;;;;;;11.57;100.00;102062.34;5065689;28;20107;-53
2023/09/03 04:38:27;;;;;;;16.25;6.97;;;;;;;11.52;100.00;102054.00;5054568;28;20334;-51
2023/09/03 04:40:52;;;;;;;14.48;7.78;;;;;;;11.50;100.00;102066.59;5060068;28;20139;-56
2023/09/03 04:43:18;;;;;;;20.10;7.97;;;;;;;11.54;100.00;102067.97;5061867;28;20515;-52
2023/09/03 04:45:48;;;;;;;10.45;7.22;;;;;;;11.54;100.00;102073.28;5053482;28;20329;-53
2023/09/03 04:48:14;;;;;;;14.45;8.57;;;;;;;11.58;100.00;102071.13;5054783;28;20124;-51
2023/09/03 04:50:40;;;;;;;9.75;7.13;;;;;;;11.62;100.00;102082.28;5061349;28;20033;-53
2023/09/03 04:53:06;;;;;;;14.43;6.07;;;;;;;11.61;100.00;102085.91;5054566;28;20040;-54
2023/09/03 04:55:33;;;;;;;18.30;6.95;;;;;;;11.58;100.00;102087.06;5056958;28;20036;-50
2023/09/03 04:57:58;;;;;;;18.48;6.97;;;;;;;11.57;100.00;102083.59;5056066;28;20097;-51
2023/09/03 05:00:23;;;;;;;7.88;6.22;;;;;;;11.58;100.00;102085.25;5055648;28;20424;-53
2023/09/03 05:02:49;;;;;;;11.25;6.45;;;;;;;11.51;100.00;102084.22;5063557;28;20061;-52
2023/09/03 05:05:14;;;;;;;15.05;6.40;;;;;;;11.44;100.00;102085.84;5049946;28;20447;-49
2023/09/03 05:07:39;;;;;;;9.73;6.82;;;;;;;11.38;100.00;102097.06;5061386;28;20546;-53
2023/09/03 05:10:05;;;;;;;10.35;7.47;;;;;;;11.32;100.00;102103.84;5062582;28;20028;-53
2023/09/03 05:12:33;;;;;;;15.70;6.43;;;;;;;11.30;100.00;102107.66;5059271;28;20028;-54
2023/09/03 05:14:58;;;;;;;10.25;7.00;;;;;;;11.27;100.00;102103.50;5056888;28;20032;-54
2023/09/03 05:17:24;;;;;;;9.75;7.28;;;;;;;11.31;100.00;102106.69;5082426;28;20134;-54
2023/09/03 05:19:49;;;;;;;13.77;6.97;;;;;;;11.36;100.00;102107.06;5059259;28;20550;-51
2023/09/03 05:22:15;;;;;;;8.57;6.63;;;;;;;11.41;100.00;102099.44;5058391;28;20114;-50
2023/09/03 05:24:40;;;;;;;8.52;5.10;;;;;;;11.42;100.00;102094.97;5051265;28;20056;-52
2023/09/03 05:27:05;;;;;;;8.27;6.40;;;;;;;11.43;100.00;102100.09;5061450;28;20048;-52
2023/09/03 05:29:30;;;;;;;9.55;6.45;;;;;;;11.39;100.00;102096.09;5054148;28;20032;-48
2023/09/03 05:31:56;;;;;;;8.02;6.00;;;;;;;11.35;100.00;102094.75;5054316;28;20037;-51
2023/09/03 05:34:23;;;;;;;13.63;7.15;;;;;;;11.34;100.00;102103.72;5058401;28;20032;-50
2023/09/03 05:36:49;;;;;;;9.90;6.03;;;;;;;11.35;100.00;102108.03;5054553;28;20230;-52
2023/09/03 05:39:14;;;;;;;10.65;6.40;;;;;;;11.38;100.00;102105.03;5055594;28;20140;-51
2023/09/03 05:41:39;;;;;;;8.43;5.93;;;;;;;11.43;100.00;102109.91;5051562;28;20058;-54
2023/09/03 05:44:09;;;;;;;8.43;7.25;;;;;;;11.43;100.00;102110.72;5055624;28;20035;-54
2023/09/03 05:46:35;;;;;;;7.57;5.78;;;;;;;11.39;100.00;102106.72;5058038;28;20025;-51
2023/09/03 05:49:00;;;;;;;6.97;6.28;;;;;;;11.44;100.00;102103.59;5056702;28;20044;-51
2023/09/03 05:51:26;;;;;;;12.48;5.97;;;;;;;11.46;100.00;102113.09;5056316;28;20533;-51
2023/09/03 05:53:51;;;;;;;12.73;6.45;;;;;;;11.45;100.00;102116.72;5056352;28;20477;-51
2023/09/03 05:56:16;;;;;;;10.35;6.15;;;;;;;11.48;100.00;102113.75;5054455;28;20029;-52
2023/09/03 05:58:42;;;;;;;12.68;5.90;;;;;;;11.53;100.00;102121.25;5055796;28;20547;-52
2023/09/03 06:01:11;;;;;;;17.75;6.63;;;;;;;11.56;100.00;102124.44;5059833;28;20028;-54
2023/09/03 06:03:38;;;;;;;17.10;7.03;;;;;;;11.56;100.00;102120.94;5050746;28;20399;-50
2023/09/03 06:06:05;;;;;;;8.75;5.80;;;;;;;11.60;100.00;102122.28;5047135;28;20028;-53
2023/09/03 06:08:31;;;;;;;9.25;7.57;;;;;;;11.69;100.00;102120.50;5062387;28;20032;-51
2023/09/03 06:10:56;;;;;;;9.40;6.43;;;;;;;11.65;100.00;102130.63;5064553;28;20027;-52
2023/09/03 06:13:23;;;;;;;8.27;6.70;;;;;;;11.67;100.00;102133.97;5053579;28;20029;-48
2023/09/03 06:15:49;;;;;;;6.18;5.50;;;;;;;11.68;100.00;102135.63;5066195;28;20025;-54
2023/09/03 06:18:15;;;;;;;6.70;6.07;;;;;;;11.71;100.00;102142.44;5054076;28;20043;-50
2023/09/03 06:20:40;;;;;;;13.02;7.50;;;;;;;11.72;100.00;102147.59;5056703;28;20059;-52
2023/09/03 06:23:05;;;;;;;7.00;5.40;;;;;;;11.83;100.00;102145.66;5061509;28;20028;-49
2023/09/03 06:25:31;;;;;;;6.47;5.03;;;;;;;11.90;100.00;102142.25;5052991;28;20037;-54
2023/09/03 06:27:56;;;;;;;8.95;6.93;;;;;;;11.94;100.00;102146.22;5055745;28;20043;-52
2023/09/03 06:30:21;;;;;;;6.72;5.07;;;;;;;11.93;100.00;102147.25;5054233;28;20039;-55
2023/09/03 06:32:46;;;;;;;8.80;6.15;;;;;;;11.95;100.00;102147.91;5048648;28;20469;-52
2023/09/03 06:35:12;;;;;;;5.25;4.75;;;;;;;11.97;100.00;102142.44;5059851;28;20032;-53
2023/09/03 06:37:37;;;;;;;5.45;4.90;;;;;;;12.02;100.00;102150.75;5052963;28;20029;-54
2023/09/03 06:40:03;;;;;;;5.38;4.85;;;;;;;12.04;100.00;102150.59;5051228;28;20119;-51
2023/09/03 06:42:29;;;;;;;7.25;6.43;;;;;;;12.07;100.00;102150.28;5063892;28;20033;-51
2023/09/03 06:44:55;;;;;;;8.18;6.85;;;;;;;12.10;100.00;102149.97;5062792;28;20366;-50
2023/09/03 06:47:20;;;;;;;8.32;5.53;;;;;;;12.12;100.00;102158.63;5057711;28;20036;-55
2023/09/03 06:49:46;;;;;;;5.18;4.68;;;;;;;12.17;100.00;102157.13;5051595;28;20029;-51
2023/09/03 06:52:11;;;;;;;6.55;5.53;;;;;;;12.23;100.00;102147.66;5051345;28;20045;-48
2023/09/03 06:54:36;;;;;;;11.75;5.53;;;;;;;12.27;100.00;102151.69;5052996;28;20028;-54
2023/09/03 06:57:03;;;;;;;4.57;4.05;;;;;;;12.34;100.00;102152.72;5059284;28;20151;-52
2023/09/03 06:59:28;;;;;;;8.98;6.38;;;;;;;12.39;100.00;102155.72;5048460;28;20107;-53
2023/09/03 07:01:53;;;;;;;7.70;4.97;;;;;;;12.46;100.00;102160.38;5056960;28;20111;-54
2023/09/03 07:04:19;;;;;;;6.45;5.80;;;;;;;12.55;100.00;102165.56;5050756;28;20082;-54
2023/09/03 07:06:44;;;;;;;7.45;5.55;;;;;;;12.64;100.00;102153.09;5049177;28;20476;-53
2023/09/03 07:09:12;;;;;;;6.30;5.32;;;;;;;12.74;100.00;102161.75;5054973;28;20040;-52
2023/09/03 07:11:38;;;;;;;5.97;5.13;;;;;;;12.85;100.00;102156.09;5048899;28;20112;-53
2023/09/03 07:14:03;;;;;;;5.18;4.63;;;;;;;12.98;100.00;102155.63;5057340;28;20486;-51
2023/09/03 07:16:29;;;;;;;7.35;4.65;;;;;;;13.10;100.00;102159.63;5055581;28;20029;-53
2023/09/03 07:18:54;;;;;;;6.72;6.05;;;;;;;13.26;100.00;102165.94;5057075;28;20441;-52
2023/09/03 07:21:19;;;;;;;6.20;5.20;;;;;;;13.41;100.00;102166.13;5064141;28;20064;-50
2023/09/03 07:23:45;;;;;;;5.75;5.18;;;;;;;13.58;100.00;102173.09;5049560;28;20626;-54
2023/09/03 07:26:10;;;;;;;5.88;5.07;;;;;;;13.89;100.00;102185.69;5057856;28;20025;-53
2023/09/03 07:28:37;;;;;;;6.85;5.03;;;;;;;13.97;100.00;102196.34;5051957;28;20549;-51
2023/09/03 07:31:02;;;;;;;6.07;5.28;;;;;;;14.18;100.00;102190.41;5061854;28;20396;-52
2023/09/03 07:33:28;;;;;;;11.05;5.70;;;;;;;14.33;100.00;102193.19;5057666;28;20377;-51
2023/09/03 07:35:53;;;;;;;6.55;5.75;;;;;;;14.50;100.00;102191.25;5049606;28;20330;-52
2023/09/03 07:38:19;;;;;;;9.32;5.20;;;;;;;14.65;100.00;102186.88;5047914;28;20032;-52
2023/09/03 07:40:44;;;;;;;5.95;4.75;;;;;;;14.82;100.00;102182.28;5049240;28;20033;-52
2023/09/03 07:43:10;;;;;;;6.70;5.43;;;;;;;14.99;100.00;102177.63;5053149;28;20041;-50
2023/09/03 07:45:35;;;;;;;8.77;5.32;;;;;;;15.17;100.00;102180.81;5050538;28;20449;-52
2023/09/03 07:48:00;;;;;;;6.88;5.18;;;;;;;15.35;100.00;102171.63;5052772;28;20059;-53
2023/09/03 07:50:28;;;;;;;7.93;5.32;;;;;;;15.56;100.00;102166.41;5052665;28;20543;-53
2023/09/03 07:52:53;;;;;;;14.00;5.68;;;;;;;15.72;100.00;102160.13;5047278;28;20024;-55
2023/09/03 07:55:19;;;;;;;5.93;4.32;;;;;;;15.92;100.00;102161.19;5049259;28;20369;-50
2023/09/03 07:57:44;;;;;;;7.47;5.65;;;;;;;16.16;100.00;102163.75;5052119;28;20599;-52
2023/09/03 08:00:09;;;;;;;4.38;3.97;;;;;;;16.33;100.00;102167.88;5054263;28;20120;-53
2023/09/03 08:02:35;;;;;;;6.93;4.65;;;;;;;16.57;100.00;102156.84;5047426;28;20059;-54
2023/09/03 08:05:00;;;;;;;4.85;4.45;;;;;;;16.79;100.00;102159.56;5062788;28;20033;-50
2023/09/03 08:07:25;;;;;;;8.15;5.43;;;;;;;16.99;100.00;102154.38;5048905;28;20028;-51
2023/09/03 08:09:51;;;;;;;5.78;5.03;;;;;;;17.20;100.00;102148.16;5059081;28;20432;-53
2023/09/03 08:12:16;;;;;;;5.00;4.40;;;;;;;17.42;100.00;102144.41;5048442;28;20029;-48
2023/09/03 08:14:43;;;;;;;5.28;4.35;;;;;;;17.58;100.00;102145.97;5056599;28;20758;-54
2023/09/03 08:17:09;;;;;;;5.00;4.50;;;;;;;17.69;100.00;102141.06;5061735;28;20034;-55
2023/09/03 08:19:35;;;;;;;5.10;4.60;;;;;;;17.84;100.00;102141.81;5055519;28;20028;-53
2023/09/03 08:22:00;;;;;;;5.10;3.90;;;;;;;17.91;100.00;102139.13;5056103;28;20181;-52
2023/09/03 08:24:26;;;;;;;6.32;4.10;;;;;;;17.99;100.00;102137.13;5050422;28;20382;-53
2023/09/03 08:26:52;;;;;;;4.43;3.60;;;;;;;18.02;100.00;102134.03;5052095;28;20025;-49
2023/09/03 08:29:17;;;;;;;3.80;3.40;;;;;;;18.14;100.00;102134.28;5054848;28;20776;-48
2023/09/03 08:31:42;;;;;;;3.95;3.55;;;;;;;18.29;100.00;102134.13;5055932;28;20048;-51
2023/09/03 08:34:09;;;;;;;3.47;3.22;;;;;;;18.46;100.00;102126.53;5060047;28;20040;-52
2023/09/03 08:36:34;;;;;;;4.82;3.55;;;;;;;18.57;100.00;102119.72;5057788;28;20434;-50
2023/09/03 08:39:01;;;;;;;6.10;3.72;;;;;;;18.72;100.00;102133.81;5057968;28;20125;-52
2023/09/03 08:41:28;;;;;;;3.50;3.13;;;;;;;18.86;100.00;102127.44;5055372;28;20047;-54
2023/09/03 08:43:57;;;;;;;3.72;3.35;;;;;;;19.02;100.00;102114.59;5056784;28;20032;-50
2023/09/03 08:46:25;;;;;;;3.38;3.08;;;;;;;19.20;100.00;102103.22;5052658;28;20037;-52
2023/09/03 08:48:50;;;;;;;2.58;2.30;;;;;;;19.37;100.00;102105.25;5048122;28;20110;-52
2023/09/03 08:51:16;;;;;;;5.85;2.75;;;;;;;19.45;100.00;102095.31;5050652;28;20032;-54
2023/09/03 08:53:43;;;;;;;4.68;1.52;;;;;;;19.53;100.00;102076.25;5057736;28;20028;-54
2023/09/03 08:56:08;;;;;;;1.38;1.27;;;;;;;19.55;100.00;102064.25;5051084;28;20047;-56
2023/09/03 08:58:34;;;;;;;1.42;1.13;;;;;;;19.71;100.00;102062.16;5046939;28;20549;-52
2023/09/03 09:00:59;;;;;;;1.67;1.58;;;;;;;19.90;100.00;102071.97;5055128;28;20139;-55
2023/09/03 09:03:28;;;;;;;3.80;0.70;;;;;;;19.94;100.00;102050.88;5050527;28;20358;-53
2023/09/03 09:05:54;;;;;;;2.42;0.93;;;;;;;19.86;100.00;102037.66;5053111;28;20068;-53
2023/09/03 09:08:21;;;;;;;1.65;1.40;;;;;;;20.00;100.00;102034.66;5051509;28;20151;-54
2023/09/03 09:10:50;;;;;;;0.65;0.40;;;;;;;20.08;100.00;102019.31;5049459;28;20032;-55
2023/09/03 09:13:21;;;;;;;1.02;0.52;;;;;;;20.19;100.00;102015.94;5052341;28;20091;-55
2023/09/03 09:15:46;;;;;;;0.30;0.30;;;;;;;20.28;100.00;102006.53;5064239;28;20032;-51
2023/09/03 09:18:12;;;;;;;2.88;0.60;;;;;;;20.43;100.00;101992.75;5052693;28;20045;-54
2023/09/03 09:20:39;;;;;;;0.50;0.50;;;;;;;20.54;100.00;101988.50;5056150;28;20124;-54
2023/09/03 09:23:05;;;;;;;1.48;0.40;;;;;;;20.60;100.00;101972.31;5049840;28;20025;-55
2023/09/03 09:25:30;;;;;;;1.02;0.47;;;;;;;20.77;100.00;101979.81;5049386;28;20476;-51
2023/09/03 09:27:57;;;;;;;0.45;0.35;;;;;;;20.82;100.00;101977.28;5047916;28;20064;-53
2023/09/03 09:30:26;;;;;;;1.30;0.57;;;;;;;21.02;100.00;101985.16;5053265;28;20063;-55
2023/09/03 09:33:07;;;;;;;1.00;0.38;;;;;;;21.12;100.00;101986.28;5054928;28;20036;-50
2023/09/03 09:35:34;;;;;;;0.43;0.15;;;;;;;21.40;100.00;101984.97;5049256;28;20029;-52
2023/09/03 09:38:08;;;;;;;2.33;0.47;;;;;;;21.56;100.00;101987.03;5048365;28;20397;-56
2023/09/03 09:40:36;;;;;;;0.55;0.55;;;;;;;21.52;100.00;101977.72;5067707;28;20033;-54
2023/09/03 09:43:04;;;;;;;0.28;0.22;;;;;;;21.66;100.00;101980.25;5046095;28;20036;-49
2023/09/03 09:45:50;;;;;;;0.35;0.35;;;;;;;21.78;100.00;101979.25;5071321;28;20046;-51
2023/09/03 09:48:16;;;;;;;0.40;0.40;;;;;;;21.92;100.00;101977.19;5066068;28;20033;-52
2023/09/03 09:50:47;;;;;;;1.13;0.30;;;;;;;21.91;100.00;101983.63;5045680;28;20028;-56
2023/09/03 09:53:24;;;;;;;1.45;0.22;;;;;;;21.85;100.00;101973.75;5052389;28;20473;-54
2023/09/03 09:56:00;;;;;;;0.35;0.30;;;;;;;21.92;100.00;101971.78;5048487;28;20043;-54
2023/09/03 09:58:39;;;;;;;0.57;0.30;;;;;;;21.99;100.00;101971.66;5049116;28;20029;-57
2023/09/03 10:01:06;;;;;;;0.90;0.50;;;;;;;22.30;100.00;101980.56;5052339;28;20028;-51
2023/09/03 10:03:42;;;;;;;2.53;0.40;;;;;;;22.50;100.00;101974.84;5051038;28;20028;-52
2023/09/03 10:06:09;;;;;;;0.73;0.40;;;;;;;22.55;100.00;101969.56;5064356;28;20048;-52
2023/09/03 10:08:35;;;;;;;1.02;0.30;;;;;;;22.63;100.00;101974.59;5049443;28;20127;-55
2023/09/03 10:11:02;;;;;;;1.02;0.45;;;;;;;22.80;100.00;101970.13;5050384;28;20033;-54
2023/09/03 10:13:30;;;;;;;0.43;0.30;;;;;;;22.91;100.00;101964.94;5051699;28;20033;-55
2023/09/03 10:15:56;;;;;;;0.17;0.17;;;;;;;22.93;100.00;101952.84;5053312;28;20092;-49
2023/09/03 10:18:23;;;;;;;0.30;0.30;;;;;;;22.99;100.00;101964.59;5053419;28;20028;-55
2023/09/03 10:20:49;;;;;;;0.85;0.65;;;;;;;22.99;100.00;101959.19;5052001;28;20040;-55
2023/09/03 10:23:18;;;;;;;0.30;0.20;;;;;;;23.12;100.00;101964.34;5050464;28;20032;-53
2023/09/03 10:25:45;;;;;;;2.00;0.10;;;;;;;23.21;100.00;101967.50;5058886;28;20594;-57
2023/09/03 10:28:12;;;;;;;0.68;0.10;;;;;;;23.33;100.00;101959.34;5057222;28;20033;-54
2023/09/03 10:30:44;;;;;;;0.90;0.20;;;;;;;23.51;100.00;101956.44;5052603;28;20040;-51
2023/09/03 10:33:10;;;;;;;1.90;0.10;;;;;;;23.57;100.00;101968.19;5048001;28;20398;-55
2023/09/03 10:35:35;;;;;;;0.45;0.00;;;;;;;23.70;100.00;101965.22;5059152;28;20539;-55
2023/09/03 10:38:01;;;;;;;0.55;0.55;;;;;;;23.99;100.00;101957.06;5051807;28;20040;-54
2023/09/03 10:40:30;;;;;;;0.25;0.20;;;;;;;24.31;100.00;101960.03;5052522;28;20039;-50
2023/09/03 10:43:14;;;;;;;1.55;0.20;;;;;;;24.34;100.00;101960.38;5042702;28;20033;-54
2023/09/03 10:46:04;;;;;;;2.45;0.52;;;;;;;24.31;100.00;101955.41;5056852;28;20028;-54
2023/09/03 10:48:29;;;;;;;0.50;0.20;;;;;;;24.43;100.00;101951.81;5045802;28;20367;-53
2023/09/03 10:50:55;;;;;;;0.63;0.17;;;;;;;24.38;100.00;101963.38;5048063;28;20035;-51
2023/09/03 10:53:40;;;;;;;1.10;0.15;;;;;;;24.45;100.00;101964.09;5052725;28;20033;-54
2023/09/03 10:56:17;;;;;;;1.38;0.28;;;;;;;24.60;100.00;101963.47;5052998;28;20037;-54
2023/09/03 10:58:53;;;;;;;0.30;0.30;;;;;;;24.63;100.00;101963.00;5045339;28;20120;-57
2023/09/03 11:01:22;;;;;;;1.00;0.10;;;;;;;24.45;100.00;101961.38;5058227;28;20660;-56
2023/09/03 11:03:49;;;;;;;2.83;0.40;;;;;;;24.44;100.00;101958.88;5046603;28;20159;-54
2023/09/03 11:06:25;;;;;;;1.40;0.10;;;;;;;24.68;100.00;101964.94;5053627;28;20044;-53
2023/09/03 11:09:12;;;;;;;0.68;0.10;;;;;;;24.70;100.00;101979.88;5048105;28;20282;-55
2023/09/03 11:11:38;;;;;;;0.55;0.55;;;;;;;24.61;100.00;101977.88;5048442;28;20593;-51
2023/09/03 11:14:08;;;;;;;0.40;0.00;;;;;;;24.57;100.00;101972.91;5053825;28;20536;-50
2023/09/03 11:16:35;;;;;;;0.52;0.10;;;;;;;24.65;100.00;101977.09;5052457;28;20036;-51